Time;durP1;ratioP1;P1;durP2;ratioP2;P2;SDS_P1;SDS_P2;PMS_P1;PMS_P2;Temp;Humidity;BMP_temperature;BMP_pressure;BME280_temperature;BME280_humidity;BME280_pressure;Samples;Min_cycle;Max_cycle;Signal;HPM_P1;HPM_P2
2021/10/02 00:36:15;;;;;;;6.72;4.82;;;;;;;8.83;64.50;100700.22;4917532;28;97749;-62
2021/10/02 00:46:52;;;;;;;10.13;6.78;;;;;;;8.77;64.61;100690.50;4918604;28;98006;-62
2021/10/02 00:49:18;;;;;;;10.90;6.70;;;;;;;8.78;65.20;100685.91;4904870;28;97991;-62
2021/10/02 00:51:44;;;;;;;10.60;5.93;;;;;;;8.79;64.56;100684.84;4919694;28;127963;-62
2021/10/02 00:54:10;;;;;;;10.82;6.60;;;;;;;8.77;64.76;100684.31;4921326;28;102914;-60
2021/10/02 00:56:36;;;;;;;10.10;6.45;;;;;;;8.79;64.69;100679.47;4921626;28;98702;-62
2021/10/02 00:59:02;;;;;;;11.45;6.70;;;;;;;8.79;64.76;100682.16;4921904;28;121053;-60
2021/10/02 01:01:44;;;;;;;10.65;6.95;;;;;;;8.75;64.63;100676.47;4921470;28;98454;-60
2021/10/02 01:04:38;;;;;;;11.13;7.25;;;;;;;8.69;64.42;100671.31;4905735;28;116797;-62
2021/10/02 01:07:22;;;;;;;12.65;6.85;;;;;;;8.63;64.57;100675.78;4898474;28;97865;-60
2021/10/02 01:10:06;;;;;;;10.60;6.00;;;;;;;8.53;64.17;100671.09;4920657;28;97805;-60
2021/10/02 01:13:06;;;;;;;9.88;6.50;;;;;;;8.49;64.22;100659.22;4911929;28;98441;-60
2021/10/02 01:16:01;;;;;;;9.00;5.68;;;;;;;8.46;64.33;100657.03;4920510;28;118045;-62
2021/10/02 01:18:34;;;;;;;7.10;5.28;;;;;;;8.45;64.95;100657.25;4918546;28;98321;-60
2021/10/02 01:21:23;;;;;;;7.93;5.15;;;;;;;8.44;64.57;100655.63;4915313;28;98241;-62
2021/10/02 01:24:22;;;;;;;5.85;4.60;;;;;;;8.47;65.10;100655.16;4900124;28;120319;-62
2021/10/02 01:27:37;;;;;;;6.95;4.65;;;;;;;8.47;64.46;100649.78;4915651;28;98461;-60
2021/10/02 01:30:07;;;;;;;7.90;4.72;;;;;;;8.48;64.67;100654.09;4920147;28;97914;-60
2021/10/02 01:32:40;;;;;;;7.55;4.72;;;;;;;8.49;65.27;100644.94;4921467;28;98860;-61
2021/10/02 01:35:18;;;;;;;7.68;4.50;;;;;;;8.47;65.24;100639.84;4904892;28;98497;-61
2021/10/02 01:48:37;;;;;;;4.90;4.07;;;;;;;8.39;64.91;100637.59;4902694;28;98038;-61
2021/10/02 01:51:03;;;;;;;5.40;3.83;;;;;;;8.39;65.07;100636.78;4887801;28;98641;-62
2021/10/02 01:53:33;;;;;;;4.88;3.97;;;;;;;8.42;65.22;100634.41;4912758;28;98466;-60
2021/10/02 01:56:03;;;;;;;5.82;3.80;;;;;;;8.49;65.01;100635.03;4919833;28;98187;-61
2021/10/02 01:58:29;;;;;;;7.25;3.88;;;;;;;8.56;64.76;100632.16;4918831;28;118705;-61
2021/10/02 02:00:55;;;;;;;5.63;3.97;;;;;;;8.62;64.46;100635.72;4902652;28;120265;-61
2021/10/02 02:03:22;;;;;;;4.80;3.65;;;;;;;8.63;64.93;100624.72;4902145;28;122194;-61
2021/10/02 02:05:48;;;;;;;4.60;3.40;;;;;;;8.67;64.61;100628.53;4919414;28;98273;-61
2021/10/02 02:08:16;;;;;;;3.95;3.30;;;;;;;8.67;64.60;100623.16;4899782;28;128548;-61
2021/10/02 02:10:43;;;;;;;4.43;3.30;;;;;;;8.66;64.84;100621.53;4913762;28;98515;-60
2021/10/02 02:13:10;;;;;;;4.05;3.17;;;;;;;8.64;64.46;100620.16;4920994;28;97752;-62
2021/10/02 02:15:38;;;;;;;5.45;3.70;;;;;;;8.65;64.51;100627.19;4902905;28;99035;-60
2021/10/02 02:18:13;;;;;;;4.45;2.95;;;;;;;8.65;64.45;100621.81;4877203;28;98649;-62
2021/10/02 02:20:43;;;;;;;4.15;2.90;;;;;;;8.66;64.56;100616.16;4913108;28;118400;-60
2021/10/02 02:23:12;;;;;;;4.90;3.10;;;;;;;8.69;64.49;100618.34;4907302;28;98046;-62
2021/10/02 02:25:38;;;;;;;4.90;3.08;;;;;;;8.69;64.62;100614.88;4914118;28;110037;-61
2021/10/02 02:28:06;;;;;;;5.22;3.50;;;;;;;8.66;64.35;100616.16;4920610;28;97870;-62
2021/10/02 02:30:33;;;;;;;4.72;3.15;;;;;;;8.59;64.49;100605.59;4920501;28;98043;-60
2021/10/02 02:33:00;;;;;;;5.68;3.10;;;;;;;8.57;64.48;100605.06;4918549;28;113402;-62
2021/10/02 02:35:26;;;;;;;4.20;2.90;;;;;;;8.59;64.60;100607.47;4919021;28;98449;-61
2021/10/02 02:37:52;;;;;;;3.65;2.67;;;;;;;8.58;64.87;100609.34;4920695;28;98289;-61
2021/10/02 02:40:19;;;;;;;4.07;2.80;;;;;;;8.56;64.53;100607.97;4920833;28;98325;-62
2021/10/02 02:42:45;;;;;;;3.80;3.03;;;;;;;8.57;64.48;100607.75;4914790;28;97894;-62
2021/10/02 02:45:13;;;;;;;4.47;3.15;;;;;;;8.56;64.27;100607.97;4909703;28;118276;-62
2021/10/02 02:48:05;;;;;;;4.75;3.00;;;;;;;8.51;64.67;100608.72;4920961;28;98451;-60
2021/10/02 02:50:50;;;;;;;4.10;2.90;;;;;;;8.51;64.04;100616.78;4905627;28;98396;-60
2021/10/02 02:53:46;;;;;;;4.15;2.90;;;;;;;8.50;64.50;100617.03;4906863;28;98168;-62
2021/10/02 02:56:38;;;;;;;4.97;2.95;;;;;;;8.48;64.55;100617.28;4890357;28;99081;-62
2021/10/02 02:59:15;;;;;;;3.47;2.95;;;;;;;8.49;64.69;100616.25;4920503;28;98546;-62
2021/10/02 03:01:41;;;;;;;5.00;3.25;;;;;;;8.50;64.42;100628.59;4900624;28;107863;-61
2021/10/02 03:04:12;;;;;;;4.70;3.30;;;;;;;8.47;64.46;100623.72;4882225;28;121801;-60
2021/10/02 03:06:43;;;;;;;4.95;3.25;;;;;;;8.46;64.43;100623.97;4903535;28;113085;-63
2021/10/02 03:09:09;;;;;;;4.10;2.78;;;;;;;8.44;64.57;100624.22;4911949;28;98598;-62
2021/10/02 03:11:35;;;;;;;4.85;3.17;;;;;;;8.44;64.92;100621.53;4916976;28;127689;-61
2021/10/02 03:14:01;;;;;;;4.60;3.30;;;;;;;8.41;64.75;100622.03;4892801;28;98476;-61
2021/10/02 03:16:27;;;;;;;4.78;3.10;;;;;;;8.42;64.75;100620.16;4897676;28;128543;-62
2021/10/02 03:18:56;;;;;;;4.95;3.38;;;;;;;8.40;64.76;100619.59;4899999;28;100056;-63
2021/10/02 03:21:23;;;;;;;4.57;3.30;;;;;;;8.41;65.20;100621.22;4893873;28;98234;-60
2021/10/02 03:23:50;;;;;;;6.30;3.40;;;;;;;8.39;64.78;100620.66;4910760;28;123997;-60
2021/10/02 03:26:16;;;;;;;6.80;3.60;;;;;;;8.37;64.96;100620.91;4888106;28;99012;-60
2021/10/02 03:28:46;;;;;;;4.32;3.50;;;;;;;8.32;64.46;100620.81;4907669;28;118960;-62
2021/10/02 03:31:12;;;;;;;3.83;2.92;;;;;;;8.32;64.55;100618.94;4912000;28;120048;-62
2021/10/02 03:33:38;;;;;;;5.47;3.15;;;;;;;8.32;64.90;100629.66;4911674;28;98016;-60
2021/10/02 03:36:05;;;;;;;4.93;3.38;;;;;;;8.31;65.00;100619.19;4909468;28;102700;-59
2021/10/02 03:38:31;;;;;;;5.13;3.60;;;;;;;8.32;65.13;100618.94;4908634;28;99345;-60
2021/10/02 03:41:00;;;;;;;5.38;3.35;;;;;;;8.32;64.63;100623.50;4907044;28;127498;-60
2021/10/02 03:43:29;;;;;;;4.18;3.30;;;;;;;8.32;64.83;100613.56;4908968;28;97829;-62
2021/10/02 03:45:56;;;;;;;5.53;3.80;;;;;;;8.32;65.07;100618.94;4914374;28;99056;-61
2021/10/02 03:48:22;;;;;;;4.78;3.20;;;;;;;8.30;64.90;100620.25;4899546;28;98245;-62
2021/10/02 03:50:48;;;;;;;6.43;3.63;;;;;;;8.31;65.01;100617.31;4916279;28;98848;-60
2021/10/02 03:53:14;;;;;;;6.03;3.45;;;;;;;8.30;65.01;100623.75;4910700;28;123451;-60
2021/10/02 03:55:40;;;;;;;5.22;3.67;;;;;;;8.32;65.24;100624.28;4908978;28;128509;-60
2021/10/02 03:58:06;;;;;;;5.22;3.95;;;;;;;8.32;64.95;100624.28;4906702;28;97948;-60
2021/10/02 04:00:32;;;;;;;6.70;3.70;;;;;;;8.31;64.97;100625.38;4912461;28;128716;-63
2021/10/02 04:02:58;;;;;;;6.38;3.50;;;;;;;8.29;64.96;100619.44;4918510;28;98946;-61
2021/10/02 04:05:24;;;;;;;4.72;3.63;;;;;;;8.29;65.23;100629.34;4919542;28;113211;-61
2021/10/02 04:07:50;;;;;;;4.50;3.20;;;;;;;8.28;65.12;100625.84;4918768;28;127818;-60
2021/10/02 04:10:16;;;;;;;6.05;3.45;;;;;;;8.28;65.01;100620.47;4911156;28;126633;-60
2021/10/02 04:12:43;;;;;;;4.28;3.20;;;;;;;8.28;65.42;100625.03;4898608;28;97886;-62
2021/10/02 04:15:09;;;;;;;4.15;3.33;;;;;;;8.28;65.18;100622.34;4898312;28;128216;-60
2021/10/02 04:17:35;;;;;;;3.42;2.90;;;;;;;8.26;65.27;100622.63;4900988;28;99210;-63
2021/10/02 04:20:01;;;;;;;4.72;2.72;;;;;;;8.27;65.33;100624.22;4920258;28;98106;-62
2021/10/02 04:22:27;;;;;;;3.50;2.78;;;;;;;8.26;65.06;100619.94;4914435;28;98057;-60
2021/10/02 04:24:53;;;;;;;4.13;2.95;;;;;;;8.25;65.38;100622.84;4908600;28;98562;-62
2021/10/02 04:27:19;;;;;;;3.00;2.67;;;;;;;8.24;65.26;100629.28;4909143;28;128941;-60
2021/10/02 04:29:45;;;;;;;4.10;2.75;;;;;;;8.23;65.44;100622.31;4909252;28;126139;-60
2021/10/02 04:32:11;;;;;;;3.45;2.63;;;;;;;8.24;65.37;100624.72;4911108;28;122331;-61
2021/10/02 04:34:37;;;;;;;2.83;2.42;;;;;;;8.25;65.19;100625.53;4914835;28;127600;-60
2021/10/02 04:37:03;;;;;;;4.28;2.42;;;;;;;8.27;65.50;100624.22;4907892;28;126845;-60
2021/10/02 04:39:30;;;;;;;3.08;2.28;;;;;;;8.27;65.48;100629.59;4908127;28;98245;-62
2021/10/02 04:41:56;;;;;;;3.10;2.20;;;;;;;8.28;65.61;100628.53;4907410;28;114473;-62
2021/10/02 04:44:22;;;;;;;6.82;2.17;;;;;;;8.30;65.87;100633.69;4913958;28;122320;-62
2021/10/02 04:46:48;;;;;;;2.67;2.40;;;;;;;8.30;65.35;100631.00;4908628;28;100116;-59
2021/10/02 04:49:14;;;;;;;3.08;2.15;;;;;;;8.30;65.98;100626.44;4910086;28;97924;-62
2021/10/02 04:51:41;;;;;;;3.63;2.13;;;;;;;8.32;65.71;100626.19;4908847;28;97889;-60
2021/10/02 04:54:07;;;;;;;3.08;2.08;;;;;;;8.33;65.52;100625.94;4909805;28;97948;-60
2021/10/02 04:56:33;;;;;;;2.72;2.28;;;;;;;8.34;66.01;100632.94;4908948;28;102892;-62
2021/10/02 04:59:00;;;;;;;3.63;2.33;;;;;;;8.35;66.26;100631.06;4911716;28;98300;-61
2021/10/02 05:01:26;;;;;;;3.50;2.13;;;;;;;8.36;65.83;100630.00;4908611;28;123143;-61
2021/10/02 05:03:53;;;;;;;2.95;2.10;;;;;;;8.40;65.27;100633.03;4920825;28;125514;-59
2021/10/02 05:06:19;;;;;;;3.42;2.28;;;;;;;8.42;66.10;100637.09;4914433;28;98460;-63
2021/10/02 05:08:48;;;;;;;2.90;2.30;;;;;;;8.45;65.93;100627.72;4916493;28;98254;-61
2021/10/02 05:11:14;;;;;;;4.32;2.10;;;;;;;8.48;65.88;100627.22;4912103;28;97912;-62
2021/10/02 05:13:40;;;;;;;2.30;1.98;;;;;;;8.51;66.36;100622.16;4907331;28;105026;-60
2021/10/02 05:16:06;;;;;;;4.25;2.28;;;;;;;8.53;65.63;100624.63;4915499;28;116201;-60
2021/10/02 05:18:32;;;;;;;2.75;2.15;;;;;;;8.58;66.08;100625.47;4920612;28;127860;-60
2021/10/02 05:20:58;;;;;;;4.00;2.17;;;;;;;8.64;66.23;100617.47;4915475;28;123020;-62
2021/10/02 05:23:24;;;;;;;4.38;2.35;;;;;;;8.69;66.57;100612.97;4914107;28;127551;-59
2021/10/02 05:25:52;;;;;;;3.85;2.33;;;;;;;8.77;66.46;100609.84;4911792;28;125893;-62
2021/10/02 05:28:19;;;;;;;4.80;3.08;;;;;;;8.87;68.14;100614.50;4949521;28;98161;-62
2021/10/02 05:30:45;;;;;;;6.18;3.20;;;;;;;8.97;68.44;100621.91;4911144;28;98611;-60
2021/10/02 05:33:11;;;;;;;4.90;3.50;;;;;;;9.09;68.21;100612.59;4904325;28;107280;-62
2021/10/02 05:35:37;;;;;;;6.60;3.45;;;;;;;9.23;68.59;100617.56;4912276;28;126594;-62
2021/10/02 05:38:03;;;;;;;4.63;3.33;;;;;;;9.33;68.19;100610.41;4906904;28;125504;-60
2021/10/02 05:40:29;;;;;;;4.72;3.40;;;;;;;9.47;68.13;100605.44;4918684;28;122491;-59
2021/10/02 05:42:55;;;;;;;4.85;3.50;;;;;;;9.58;68.68;100604.41;4909422;28;127716;-60
2021/10/02 05:45:21;;;;;;;5.07;3.70;;;;;;;9.71;68.93;100597.81;4884184;28;101177;-62
2021/10/02 05:47:47;;;;;;;5.28;3.42;;;;;;;9.82;68.94;100609.44;4907991;28;127584;-62
2021/10/02 05:50:13;;;;;;;5.85;3.40;;;;;;;9.94;69.35;100609.25;4908837;28;124191;-60
2021/10/02 05:52:39;;;;;;;7.55;3.75;;;;;;;10.05;68.89;100611.75;4910449;28;128620;-62
2021/10/02 05:55:07;;;;;;;5.65;3.08;;;;;;;10.18;68.77;100621.28;4910821;28;128882;-60
2021/10/02 05:57:33;;;;;;;6.47;3.35;;;;;;;10.28;68.72;100618.66;4910641;28;98153;-63
2021/10/02 05:59:59;;;;;;;5.75;3.25;;;;;;;10.39;68.33;100626.81;4919833;28;106963;-60
2021/10/02 06:02:25;;;;;;;5.03;3.40;;;;;;;10.48;68.46;100628.72;4917977;28;98526;-60
2021/10/02 06:04:51;;;;;;;4.93;3.50;;;;;;;10.56;68.16;100636.31;4912751;28;99122;-60
2021/10/02 06:07:17;;;;;;;5.93;3.83;;;;;;;10.65;67.83;100636.63;4909977;28;100954;-60
2021/10/02 06:09:43;;;;;;;4.00;3.45;;;;;;;10.77;68.14;100636.41;4909586;28;123244;-60
2021/10/02 06:12:09;;;;;;;4.75;3.70;;;;;;;10.86;67.65;100631.31;4915807;28;98746;-61
2021/10/02 06:14:35;;;;;;;6.18;3.30;;;;;;;10.93;67.75;100626.47;4912429;28;126890;-60
2021/10/02 06:17:01;;;;;;;6.15;3.55;;;;;;;11.02;67.67;100625.69;4915554;28;112046;-60
2021/10/02 06:19:27;;;;;;;4.45;3.35;;;;;;;11.10;66.97;100620.84;4916873;28;105439;-60
2021/10/02 06:21:54;;;;;;;3.85;3.17;;;;;;;11.18;67.53;100625.72;4911253;28;126925;-61
2021/10/02 06:24:20;;;;;;;4.68;3.20;;;;;;;11.25;67.69;100634.38;4916051;28;98908;-60
2021/10/02 06:26:46;;;;;;;4.00;3.13;;;;;;;11.30;67.08;100626.28;4913567;28;125509;-62
2021/10/02 06:29:12;;;;;;;6.13;3.45;;;;;;;11.38;66.74;100628.44;4913644;28;121371;-62
2021/10/02 06:31:38;;;;;;;4.75;3.40;;;;;;;11.44;67.18;100638.19;4914261;28;98941;-61
2021/10/02 06:34:04;;;;;;;4.18;3.38;;;;;;;11.50;66.80;100642.47;4915519;28;126981;-60
2021/10/02 06:36:30;;;;;;;5.18;3.40;;;;;;;11.55;66.80;100647.06;4915174;28;128251;-62
2021/10/02 06:38:57;;;;;;;4.00;3.20;;;;;;;11.64;65.95;100639.28;4915741;28;98065;-62
2021/10/02 06:41:23;;;;;;;6.00;3.47;;;;;;;11.74;66.47;100644.66;4913603;28;128063;-60
2021/10/02 06:43:49;;;;;;;3.75;3.28;;;;;;;11.82;65.98;100646.81;4917199;28;98707;-61
2021/10/02 06:46:15;;;;;;;6.63;3.33;;;;;;;11.91;65.77;100647.13;4914799;28;128137;-60
2021/10/02 06:48:41;;;;;;;3.80;3.35;;;;;;;11.97;65.94;100646.03;4897048;28;113839;-63
2021/10/02 06:51:11;;;;;;;4.32;3.58;;;;;;;12.05;65.77;100648.16;4910788;28;109750;-61
2021/10/02 06:53:37;;;;;;;6.40;3.28;;;;;;;12.12;65.76;100653.31;4915429;28;128235;-62
2021/10/02 06:56:04;;;;;;;4.70;2.90;;;;;;;12.17;65.58;100656.00;4913354;28;128142;-62
2021/10/02 06:58:31;;;;;;;5.28;3.42;;;;;;;12.21;65.72;100654.34;4910821;28;99896;-60
2021/10/02 07:00:57;;;;;;;4.93;3.22;;;;;;;12.24;65.44;100653.81;4914049;28;98585;-62
2021/10/02 07:03:24;;;;;;;3.85;3.08;;;;;;;12.29;65.17;100651.91;4914844;28;128062;-61
2021/10/02 07:05:50;;;;;;;3.67;2.92;;;;;;;12.37;65.29;100657.84;4916118;28;98164;-61
2021/10/02 07:08:16;;;;;;;4.13;2.70;;;;;;;12.45;65.26;100652.66;4913813;28;122077;-62
2021/10/02 07:10:42;;;;;;;5.78;3.10;;;;;;;12.57;65.00;100657.75;4914841;28;109982;-62
2021/10/02 07:13:08;;;;;;;4.38;3.13;;;;;;;12.72;64.74;100673.13;4915475;28;126644;-61
2021/10/02 07:15:34;;;;;;;4.60;3.05;;;;;;;12.86;64.48;100667.97;4914878;28;126042;-60
2021/10/02 07:18:00;;;;;;;4.78;2.92;;;;;;;12.99;64.16;100670.84;4914592;28;98204;-62
2021/10/02 07:20:27;;;;;;;9.13;3.33;;;;;;;13.16;63.98;100667.78;4909148;28;125570;-60
2021/10/02 07:22:53;;;;;;;5.50;3.38;;;;;;;13.33;63.50;100659.34;4915239;28;99349;-60
2021/10/02 07:25:21;;;;;;;6.07;3.63;;;;;;;13.49;63.13;100657.34;4912563;28;126335;-60
2021/10/02 07:27:47;;;;;;;6.68;4.20;;;;;;;13.64;63.25;100657.22;4915483;28;97964;-62
2021/10/02 07:30:13;;;;;;;10.43;4.80;;;;;;;13.79;62.77;100656.25;4915593;28;127759;-60
2021/10/02 07:32:39;;;;;;;6.25;3.45;;;;;;;13.93;62.29;100651.81;4914932;28;115122;-60
2021/10/02 07:35:07;;;;;;;4.78;3.60;;;;;;;14.14;62.65;100651.63;4915590;28;97953;-60
2021/10/02 07:37:33;;;;;;;7.53;5.18;;;;;;;14.38;62.26;100648.91;4914918;28;98315;-60
2021/10/02 07:39:59;;;;;;;6.53;4.30;;;;;;;14.63;61.39;100645.16;4914922;28;123480;-62
2021/10/02 07:42:25;;;;;;;8.52;5.85;;;;;;;14.82;60.96;100643.28;4912936;28;98780;-60
2021/10/02 07:44:57;;;;;;;5.60;4.22;;;;;;;14.98;60.55;100654.75;4910416;28;99044;-60
2021/10/02 07:47:23;;;;;;;14.95;8.07;;;;;;;15.14;60.65;100655.34;4912273;28;99207;-60
2021/10/02 07:49:50;;;;;;;7.63;4.85;;;;;;;15.27;60.01;100656.53;4895188;28;129131;-60
2021/10/02 07:52:17;;;;;;;9.80;4.55;;;;;;;15.40;59.87;100661.19;4908967;28;120972;-60
2021/10/02 07:54:44;;;;;;;60.20;28.17;;;;;;;15.56;59.48;100653.63;4912762;28;98241;-61
2021/10/02 07:57:10;;;;;;;7.90;5.10;;;;;;;15.86;59.28;100652.34;4890004;28;121901;-61
2021/10/02 07:59:37;;;;;;;5.60;3.45;;;;;;;16.08;58.31;100643.56;4913071;28;127473;-61
2021/10/02 08:02:05;;;;;;;5.25;3.05;;;;;;;16.67;57.40;100636.44;4913820;28;112419;-61
2021/10/02 08:04:32;;;;;;;5.72;2.88;;;;;;;17.11;56.45;100641.22;4910762;28;98085;-62
2021/10/02 08:06:58;;;;;;;4.25;2.63;;;;;;;17.37;55.61;100643.34;4911744;28;100288;-60
2021/10/02 08:09:25;;;;;;;3.50;2.72;;;;;;;17.43;55.58;100637.47;4914881;28;118052;-62
2021/10/02 08:11:51;;;;;;;5.00;2.85;;;;;;;18.03;53.96;100641.72;4913161;28;107867;-60
2021/10/02 08:14:17;;;;;;;3.50;2.78;;;;;;;19.99;49.72;100643.81;4910486;28;127918;-62
2021/10/02 08:16:44;;;;;;;3.47;2.60;;;;;;;22.24;45.18;100634.00;4912256;28;123765;-61
2021/10/02 08:19:10;;;;;;;4.22;2.33;;;;;;;21.66;46.27;100654.28;4897950;28;112532;-62
2021/10/02 08:21:40;;;;;;;4.93;2.55;;;;;;;23.70;44.20;100643.16;4878124;28;98419;-61
2021/10/02 08:24:07;;;;;;;2.97;2.20;;;;;;;28.54;35.32;100651.25;4914092;28;98076;-62
2021/10/02 08:26:33;;;;;;;3.60;2.40;;;;;;;31.10;32.03;100654.22;4913766;28;98348;-63
2021/10/02 08:28:59;;;;;;;2.78;1.85;;;;;;;32.00;30.30;100649.81;4911013;28;126525;-63
2021/10/02 08:31:25;;;;;;;3.17;2.13;;;;;;;32.72;29.55;100641.63;4910096;28;98869;-63
2021/10/02 08:33:52;;;;;;;3.03;1.92;;;;;;;31.32;31.15;100636.25;4916007;28;128059;-62
2021/10/02 08:36:18;;;;;;;2.22;2.00;;;;;;;28.94;33.80;100632.88;4916974;28;98078;-62
2021/10/02 08:38:45;;;;;;;3.95;2.10;;;;;;;28.20;34.35;100622.84;4917470;28;116964;-62
2021/10/02 08:41:11;;;;;;;3.63;2.40;;;;;;;32.81;28.37;100625.16;4918473;28;98146;-61
2021/10/02 08:43:38;;;;;;;3.28;1.98;;;;;;;35.13;26.28;100632.78;4918181;28;98371;-64
2021/10/02 08:46:07;;;;;;;3.28;2.05;;;;;;;35.97;25.50;100624.91;4918947;28;99239;-62
2021/10/02 08:48:33;;;;;;;4.68;1.92;;;;;;;38.61;22.79;100613.47;4914010;28;98267;-62
2021/10/02 08:51:02;;;;;;;2.58;1.70;;;;;;;39.70;22.02;100609.75;4919620;28;97958;-61
2021/10/02 08:53:33;;;;;;;3.10;1.77;;;;;;;39.84;21.26;100605.56;4916539;28;118927;-60
2021/10/02 08:56:01;;;;;;;2.93;1.80;;;;;;;37.38;23.17;100592.63;4918195;28;98118;-60
2021/10/02 08:58:27;;;;;;;2.63;2.03;;;;;;;35.89;24.06;100592.69;4912546;28;102864;-59
2021/10/02 09:00:53;;;;;;;2.20;1.42;;;;;;;37.93;21.59;100600.94;4913314;28;118347;-60
2021/10/02 09:03:19;;;;;;;1.70;1.52;;;;;;;35.87;23.81;100593.09;4918754;28;127718;-59
2021/10/02 09:05:46;;;;;;;3.67;1.60;;;;;;;33.69;25.94;100583.38;4916173;28;97995;-62
2021/10/02 09:08:12;;;;;;;2.05;1.58;;;;;;;34.60;24.55;100580.66;4916607;28;110861;-59
2021/10/02 09:10:38;;;;;;;3.95;1.50;;;;;;;36.17;23.77;100574.38;4917984;28;98204;-60
2021/10/02 09:13:05;;;;;;;2.72;1.50;;;;;;;38.66;21.10;100595.19;4912767;28;99461;-61
2021/10/02 09:15:31;;;;;;;1.95;1.40;;;;;;;35.95;23.60;100587.31;4911871;28;99053;-63
2021/10/02 09:17:57;;;;;;;2.50;1.58;;;;;;;34.07;25.04;100587.97;4911876;28;114250;-63
2021/10/02 09:20:24;;;;;;;3.33;1.48;;;;;;;34.28;25.33;100575.66;4918950;28;98837;-62
2021/10/02 09:22:56;;;;;;;3.53;1.40;;;;;;;35.36;24.30;100566.69;4917335;28;98619;-62
2021/10/02 09:25:23;;;;;;;3.40;1.50;;;;;;;35.15;24.22;100571.53;4916935;28;99367;-62
2021/10/02 09:28:09;;;;;;;2.80;1.40;;;;;;;34.97;24.57;100573.13;4918753;28;98856;-63
2021/10/02 09:30:35;;;;;;;1.95;1.30;;;;;;;33.60;25.64;100558.00;4914755;28;98730;-61
2021/10/02 09:33:20;;;;;;;1.70;1.20;;;;;;;32.24;27.21;100561.59;4909707;28;98958;-61
2021/10/02 09:35:47;;;;;;;2.30;1.42;;;;;;;31.35;27.86;100559.50;4918289;28;97952;-62
2021/10/02 09:38:16;;;;;;;4.75;1.42;;;;;;;30.22;29.38;100554.69;4916969;28;98290;-61
2021/10/02 09:40:53;;;;;;;3.42;1.30;;;;;;;28.69;31.45;100554.28;4915635;28;98507;-61
2021/10/02 09:43:19;;;;;;;2.38;1.60;;;;;;;27.69;32.51;100551.56;4947776;28;98490;-61
2021/10/02 09:45:45;;;;;;;4.57;1.60;;;;;;;26.92;33.70;100558.63;4914164;28;98062;-62
2021/10/02 09:48:15;;;;;;;3.13;1.30;;;;;;;26.30;34.50;100558.91;4898745;28;128281;-62
2021/10/02 09:50:47;;;;;;;2.45;1.58;;;;;;;25.89;35.32;100560.59;4913258;28;98263;-62
2021/10/02 09:53:17;;;;;;;3.47;1.25;;;;;;;25.93;35.21;100561.47;4918254;28;98575;-62
2021/10/02 09:55:46;;;;;;;2.13;1.27;;;;;;;25.62;35.52;100555.00;4912557;28;105068;-62
2021/10/02 09:58:17;;;;;;;2.15;1.40;;;;;;;25.50;35.72;100548.84;4910912;28;98552;-61
2021/10/02 10:00:48;;;;;;;2.90;1.30;;;;;;;25.74;35.49;100555.97;4915705;28;117951;-62
2021/10/02 10:03:16;;;;;;;2.63;1.38;;;;;;;25.88;35.56;100553.50;4916087;28;100428;-62
2021/10/02 10:05:47;;;;;;;2.13;1.30;;;;;;;26.04;35.50;100543.09;4913923;28;98068;-61
2021/10/02 10:08:26;;;;;;;1.90;1.20;;;;;;;26.45;35.18;100540.63;4917155;28;114488;-62
2021/10/02 10:11:13;;;;;;;2.42;1.20;;;;;;;26.34;35.01;100537.66;4916087;28;98477;-62
2021/10/02 10:13:39;;;;;;;2.05;1.23;;;;;;;26.24;35.17;100545.78;4917864;28;98565;-62
2021/10/02 10:16:09;;;;;;;3.50;1.10;;;;;;;26.54;34.62;100549.41;4918277;28;98195;-63
2021/10/02 10:18:38;;;;;;;2.90;1.27;;;;;;;26.74;34.32;100532.69;4916312;28;97932;-63
2021/10/02 10:21:10;;;;;;;2.78;1.30;;;;;;;26.65;34.85;100544.84;4918244;28;98798;-62
2021/10/02 10:23:39;;;;;;;2.42;1.30;;;;;;;26.61;34.93;100541.22;4917587;28;107585;-62
2021/10/02 10:26:16;;;;;;;2.70;1.02;;;;;;;26.77;35.08;100529.19;4918453;28;97904;-61
2021/10/02 10:28:47;;;;;;;2.90;1.00;;;;;;;26.68;34.94;100532.22;4918013;28;98237;-61
2021/10/02 10:31:27;;;;;;;3.23;1.10;;;;;;;26.57;35.05;100537.63;4915978;28;109373;-63
2021/10/02 10:33:55;;;;;;;3.53;1.30;;;;;;;26.42;35.16;100541.31;4917946;28;98436;-63
2021/10/02 10:36:24;;;;;;;1.88;1.20;;;;;;;26.39;35.74;100542.84;4917978;28;98043;-63
2021/10/02 10:38:51;;;;;;;2.08;1.23;;;;;;;26.36;35.44;100535.31;4917342;28;106771;-61
2021/10/02 10:41:18;;;;;;;1.85;1.00;;;;;;;26.41;35.54;100523.97;4916282;28;98781;-63
2021/10/02 10:43:44;;;;;;;2.38;1.00;;;;;;;26.37;35.53;100528.63;4916553;28;117048;-61
2021/10/02 10:46:16;;;;;;;2.50;1.00;;;;;;;26.76;35.18;100519.28;4917687;28;98278;-60
2021/10/02 10:48:43;;;;;;;3.53;1.05;;;;;;;26.92;34.19;100517.13;4916426;28;99280;-61
2021/10/02 10:51:11;;;;;;;2.75;0.70;;;;;;;27.00;34.16;100518.81;4916758;28;126740;-61
2021/10/02 10:53:51;;;;;;;2.50;0.77;;;;;;;27.18;34.14;100513.50;4917431;28;104383;-61
2021/10/02 10:56:39;;;;;;;1.30;0.60;;;;;;;27.30;33.94;100516.00;4899851;28;97800;-63
2021/10/02 10:59:05;;;;;;;1.60;0.60;;;;;;;27.25;33.04;100516.34;4915801;28;98039;-61
2021/10/02 11:01:35;;;;;;;2.83;0.80;;;;;;;27.24;33.48;100522.25;4916480;28;119878;-61
2021/10/02 11:04:02;;;;;;;2.67;1.10;;;;;;;27.38;32.64;100508.56;4917303;28;110456;-64
2021/10/02 11:06:55;;;;;;;2.10;0.80;;;;;;;27.66;33.18;100505.25;4916602;28;97947;-61
2021/10/02 11:09:37;;;;;;;1.98;0.70;;;;;;;28.16;32.70;100507.66;4917469;28;98564;-63
2021/10/02 11:12:06;;;;;;;1.83;0.90;;;;;;;28.44;31.72;100507.06;4916000;28;116863;-61
2021/10/02 11:14:47;;;;;;;2.70;0.90;;;;;;;28.85;32.07;100500.13;4917250;28;98160;-63
2021/10/02 11:17:31;;;;;;;2.03;1.20;;;;;;;28.85;32.14;100502.88;4917027;28;97864;-63
2021/10/02 11:19:58;;;;;;;2.03;0.95;;;;;;;29.20;31.18;100500.63;4916616;28;98334;-63
2021/10/02 11:23:21;;;;;;;1.75;0.73;;;;;;;29.70;31.03;100506.25;4915535;28;100806;-61
2021/10/02 11:25:47;;;;;;;3.38;0.80;;;;;;;29.70;30.88;100497.94;4913086;28;98050;-65
2021/10/02 11:28:22;;;;;;;1.95;0.70;;;;;;;29.82;30.98;100495.53;4915312;28;98188;-61
2021/10/02 11:30:50;;;;;;;2.83;0.60;;;;;;;29.64;30.36;100499.53;4916866;28;97913;-64
2021/10/02 11:33:45;;;;;;;1.92;0.50;;;;;;;29.65;30.58;100487.22;4916724;28;98111;-64
2021/10/02 11:39:26;;;;;;;2.15;0.60;;;;;;;29.40;31.32;100487.16;4916007;28;97970;-61
2021/10/02 11:42:12;;;;;;;1.50;0.50;;;;;;;29.11;31.05;100485.16;4917166;28;98419;-61
2021/10/02 11:44:48;;;;;;;1.48;0.50;;;;;;;29.02;31.10;100483.94;4912595;28;98843;-63
2021/10/02 11:47:34;;;;;;;1.13;0.40;;;;;;;28.86;31.72;100490.59;4914227;28;98664;-61
2021/10/02 11:50:12;;;;;;;1.65;0.60;;;;;;;28.58;31.51;100485.75;4915963;28;98895;-66
2021/10/02 11:53:02;;;;;;;2.42;0.50;;;;;;;28.18;31.87;100472.84;4916804;28;98258;-61
2021/10/02 11:55:38;;;;;;;1.45;0.50;;;;;;;27.84;32.88;100456.41;4908995;28;98218;-61
2021/10/02 11:58:10;;;;;;;1.77;0.43;;;;;;;27.69;32.61;100459.41;4916674;28;97990;-61
2021/10/02 12:00:47;;;;;;;2.25;0.50;;;;;;;27.53;32.40;100451.38;4916501;28;97880;-63
2021/10/02 12:03:27;;;;;;;1.02;0.45;;;;;;;27.35;33.04;100457.56;4914384;28;117962;-61
2021/10/02 12:05:54;;;;;;;1.25;0.60;;;;;;;27.27;32.75;100464.19;4916893;28;100630;-63
2021/10/02 12:08:20;;;;;;;1.55;0.50;;;;;;;27.18;32.41;100455.41;4899670;28;114110;-63
2021/10/02 12:11:00;;;;;;;2.20;0.40;;;;;;;27.01;33.34;100447.72;4918504;28;115279;-63
2021/10/02 12:13:29;;;;;;;3.30;0.60;;;;;;;26.87;32.92;100446.34;4919940;28;98312;-61
2021/10/02 12:16:04;;;;;;;2.35;0.57;;;;;;;26.71;33.23;100434.72;4918681;28;97895;-64
2021/10/02 12:18:53;;;;;;;1.08;0.45;;;;;;;26.68;33.48;100438.25;4919775;28;98109;-61
2021/10/02 12:21:27;;;;;;;0.90;0.50;;;;;;;26.54;32.91;100444.41;4911562;28;98589;-61
2021/10/02 12:23:58;;;;;;;2.65;0.50;;;;;;;26.44;33.26;100437.53;4919749;28;100338;-61
2021/10/02 12:26:25;;;;;;;2.87;0.43;;;;;;;26.36;33.56;100444.13;4917642;28;98557;-64
2021/10/02 12:29:02;;;;;;;1.60;0.50;;;;;;;26.25;33.68;100437.66;4901435;28;98490;-63
2021/10/02 12:32:00;;;;;;;1.63;0.60;;;;;;;26.17;33.63;100436.00;4913160;28;97859;-63
2021/10/02 12:34:27;;;;;;;1.33;0.50;;;;;;;26.05;33.38;100436.22;4919542;28;99149;-64